createdAt,value
2017-04-20T00:00:50.284Z,2.04
2017-04-20T00:02:01.308Z,1.98
2017-04-20T00:03:12.345Z,2.01
2017-04-20T00:04:23.577Z,1.89
2017-04-20T00:05:34.640Z,1.92
2017-04-20T00:06:45.790Z,1.86
2017-04-20T00:07:57.011Z,1.69
2017-04-20T00:09:08.044Z,1.71
2017-04-20T00:10:19.066Z,1.78
2017-04-20T00:11:30.086Z,1.71
2017-04-20T00:12:41.110Z,1.68
2017-04-20T00:13:52.138Z,1.53
2017-04-20T00:15:03.352Z,1.53
2017-04-20T00:16:14.621Z,1.53
2017-04-20T00:17:25.647Z,1.54
2017-04-20T00:18:36.670Z,1.51
2017-04-20T00:19:47.690Z,1.47
2017-04-20T00:20:58.718Z,1.46
2017-04-20T00:22:09.744Z,1.47
2017-04-20T00:23:20.965Z,1.5
2017-04-20T00:24:31.986Z,1.53
2017-04-20T00:25:43.008Z,1.46
2017-04-20T00:26:54.188Z,1.54
2017-04-20T00:28:05.606Z,1.48
2017-04-20T00:29:16.723Z,1.51
2017-04-20T00:30:27.970Z,1.33
2017-04-20T00:31:38.995Z,1.35
2017-04-20T00:32:50.262Z,1.26
2017-04-20T00:34:01.300Z,1.3
2017-04-20T00:35:12.325Z,1.29
2017-04-20T00:36:23.563Z,1.21
2017-04-20T00:37:34.785Z,1.21
2017-04-20T00:38:45.823Z,1.2
2017-04-20T00:39:56.840Z,1.14
2017-04-20T00:41:07.874Z,1.22
2017-04-20T00:42:18.894Z,1.17
2017-04-20T00:43:30.165Z,1.21
2017-04-20T00:44:41.185Z,1.18
2017-04-20T00:45:52.397Z,1.22
2017-04-20T00:47:03.423Z,1.1
2017-04-20T00:48:14.442Z,1.03
2017-04-20T00:49:25.692Z,1.1
2017-04-20T00:50:36.843Z,1.08
2017-04-20T00:51:48.086Z,1.08
2017-04-20T00:52:59.307Z,1.12
2017-04-20T00:54:10.765Z,1.1
2017-04-20T00:55:21.789Z,0.99
2017-04-20T00:56:32.816Z,1.11
2017-04-20T00:57:44.030Z,1.12
2017-04-20T00:58:55.054Z,1.1
2017-04-20T01:00:06.284Z,1.07
2017-04-20T01:01:17.308Z,1.04
2017-04-20T01:02:28.325Z,1.1
2017-04-20T01:03:39.543Z,1.04
2017-04-20T01:04:50.551Z,1.08
2017-04-20T01:06:01.567Z,1.03
2017-04-20T01:07:12.789Z,1.08
2017-04-20T01:08:23.803Z,0.99
2017-04-20T01:09:35.234Z,1
2017-04-20T01:10:46.300Z,0.99
2017-04-20T01:11:57.699Z,0.99
2017-04-20T01:13:08.710Z,1
2017-04-20T01:14:19.721Z,0.96
2017-04-20T01:15:30.744Z,0.99
2017-04-20T01:16:41.758Z,0.93
2017-04-20T01:17:52.777Z,0.92
2017-04-20T01:19:03.800Z,0.84
2017-04-20T01:20:14.828Z,0.94
2017-04-20T01:21:26.105Z,0.94
2017-04-20T01:22:37.334Z,0.97
2017-04-20T01:23:48.553Z,0.92
2017-04-20T01:24:59.559Z,0.9
2017-04-20T01:26:10.574Z,0.96
2017-04-20T01:27:21.996Z,0.96
2017-04-20T01:28:33.027Z,0.96
2017-04-20T01:29:44.052Z,0.96
2017-04-20T01:30:55.064Z,0.93
2017-04-20T01:32:06.425Z,0.94
2017-04-20T01:33:17.634Z,0.92
2017-04-20T01:34:28.916Z,0.96
2017-04-20T01:35:40.130Z,0.93
2017-04-20T01:36:51.145Z,0.85
2017-04-20T01:38:02.161Z,0.84
2017-04-20T01:39:13.380Z,0.76
2017-04-20T01:40:24.600Z,0.82
2017-04-20T01:41:35.625Z,0.69
2017-04-20T01:42:46.680Z,0.67
2017-04-20T01:43:57.694Z,0.61
2017-04-20T01:45:08.920Z,0.67
2017-04-20T01:46:19.942Z,0.53
2017-04-20T01:47:31.164Z,0.48
2017-04-20T01:48:42.429Z,0.52
2017-04-20T01:49:53.460Z,0.63
2017-04-20T01:51:04.491Z,0.45
2017-04-20T01:52:15.713Z,0.37
2017-04-20T01:53:26.737Z,0.35
2017-04-20T01:54:37.849Z,0.41
2017-04-20T01:55:49.611Z,0.41
2017-04-20T01:57:00.630Z,0.37
2017-04-20T01:58:11.847Z,0.38
2017-04-20T01:59:22.928Z,0.39
2017-04-20T02:00:33.943Z,0.42
2017-04-20T02:01:44.978Z,0.37
2017-04-20T02:02:55.995Z,0.32
2017-04-20T02:04:07.219Z,0.37
2017-04-20T02:05:18.248Z,0.31
2017-04-20T02:06:29.468Z,0.28
2017-04-20T02:07:40.481Z,0.28
2017-04-20T02:08:51.513Z,0.23
2017-04-20T02:10:02.790Z,0.23
2017-04-20T02:11:13.814Z,0.2
2017-04-20T02:12:24.841Z,0.21
2017-04-20T02:13:35.870Z,0.2
2017-04-20T02:14:46.905Z,0.27
2017-04-20T02:15:57.933Z,0.23
2017-04-20T02:17:09.146Z,0.19
2017-04-20T02:18:20.179Z,0.17
2017-04-20T02:19:31.408Z,0.23
2017-04-20T02:20:42.495Z,0.2
2017-04-20T02:21:53.513Z,0.17
2017-04-20T02:23:04.538Z,0.13
2017-04-20T02:24:15.549Z,0.14
2017-04-20T02:25:26.566Z,0.13
2017-04-20T02:26:37.641Z,0.16
2017-04-20T02:27:48.654Z,0.05
2017-04-20T02:28:59.694Z,0.13
2017-04-20T02:30:10.712Z,0.13
2017-04-20T02:31:21.745Z,0.19
2017-04-20T02:32:32.763Z,0.09
2017-04-20T02:33:43.992Z,0.13
2017-04-20T02:34:55.002Z,0.14
2017-04-20T02:36:06.096Z,0.09
2017-04-20T02:37:17.111Z,0.14
2017-04-20T02:38:28.151Z,0.1
2017-04-20T02:39:39.166Z,0.08
2017-04-20T02:40:50.184Z,0.01
2017-04-20T02:42:01.218Z,-0.01
2017-04-20T02:43:12.492Z,-0.04
2017-04-20T02:44:23.515Z,-0.05
2017-04-20T02:45:34.535Z,-0.07
2017-04-20T02:46:45.608Z,-0.13
2017-04-20T02:47:56.819Z,-0.19
2017-04-20T02:49:08.048Z,-0.12
2017-04-20T02:50:19.063Z,-0.13
2017-04-20T02:51:30.082Z,-0.23
2017-04-20T02:52:41.101Z,-0.16
2017-04-20T02:53:52.119Z,-0.15
2017-04-20T02:55:03.152Z,-0.1
2017-04-20T02:56:14.395Z,-0.16
2017-04-20T02:57:25.489Z,-0.19
2017-04-20T02:58:36.507Z,-0.3
2017-04-20T02:59:47.531Z,-0.27
2017-04-20T03:00:58.554Z,-0.16
2017-04-20T03:02:09.762Z,-0.19
2017-04-20T03:03:20.987Z,-0.23
2017-04-20T03:04:32.219Z,-0.37
2017-04-20T03:05:43.248Z,-0.36
2017-04-20T03:06:54.275Z,-0.4
2017-04-20T03:08:05.548Z,-0.28
2017-04-20T03:09:16.757Z,-0.25
2017-04-20T03:10:27.773Z,-0.37
2017-04-20T03:11:38.798Z,-0.4
2017-04-20T03:12:50.025Z,-0.4
2017-04-20T03:14:01.045Z,-0.46
2017-04-20T03:15:12.057Z,-0.46
2017-04-20T03:16:23.074Z,-0.38
2017-04-20T03:17:34.084Z,-0.37
2017-04-20T03:18:45.168Z,-0.45
2017-04-20T03:19:56.404Z,-0.43
2017-04-20T03:21:07.618Z,-0.4
2017-04-20T03:22:18.635Z,-0.34
2017-04-20T03:23:29.660Z,-0.45
2017-04-20T03:24:40.721Z,-0.33
2017-04-20T03:25:51.945Z,-0.51
2017-04-20T03:27:02.964Z,-0.38
2017-04-20T03:28:13.991Z,-0.41
2017-04-20T03:29:25.063Z,-0.56
2017-04-20T03:30:36.287Z,-0.46
2017-04-20T03:31:47.312Z,-0.55
2017-04-20T03:32:58.343Z,-0.61
2017-04-20T03:34:09.374Z,-0.58
2017-04-20T03:35:20.403Z,-0.61
2017-04-20T03:36:31.414Z,-0.66
2017-04-20T03:37:42.452Z,-0.58
2017-04-20T03:38:53.487Z,-0.54
2017-04-20T03:40:04.975Z,-0.61
2017-04-20T03:41:15.996Z,-0.61
2017-04-20T03:42:27.021Z,-0.59
2017-04-20T03:43:38.042Z,-0.67
2017-04-20T03:44:49.059Z,-0.73
2017-04-20T03:46:00.082Z,-0.74
2017-04-20T03:47:11.105Z,-0.73
2017-04-20T03:48:22.138Z,-0.66
2017-04-20T03:49:33.167Z,-0.73
2017-04-20T03:50:44.198Z,-0.73
2017-04-20T03:51:55.228Z,-0.76
2017-04-20T03:53:06.255Z,-0.82
2017-04-20T03:54:17.275Z,-0.85
2017-04-20T03:55:28.560Z,-0.77
2017-04-20T03:56:39.783Z,-0.91
2017-04-20T03:57:50.803Z,-0.87
2017-04-20T03:59:02.029Z,-0.96
2017-04-20T04:00:13.224Z,-0.95
2017-04-20T04:01:24.643Z,-0.91
2017-04-20T04:02:35.660Z,-0.91
2017-04-20T04:03:46.695Z,-0.93
2017-04-20T04:04:57.730Z,-0.93
2017-04-20T04:06:08.807Z,-0.92
2017-04-20T04:07:19.828Z,-0.93
2017-04-20T04:08:30.844Z,-0.87
2017-04-20T04:09:41.870Z,-0.92
2017-04-20T04:10:52.888Z,-0.91
2017-04-20T04:12:03.905Z,-1.01
2017-04-20T04:13:14.933Z,-1.06
2017-04-20T04:14:26.176Z,-1.01
2017-04-20T04:15:37.195Z,-1.07
2017-04-20T04:16:48.271Z,-0.99
2017-04-20T04:17:59.485Z,-1.07
2017-04-20T04:19:10.506Z,-1.07
2017-04-20T04:20:21.514Z,-1.06
2017-04-20T04:21:32.521Z,-1.1
2017-04-20T04:22:43.782Z,-0.99
2017-04-20T04:23:54.804Z,-1.01
2017-04-20T04:25:05.834Z,-0.99
2017-04-20T04:26:16.847Z,-1.07
2017-04-20T04:27:28.120Z,-1.06
2017-04-20T04:28:39.140Z,-1.03
2017-04-20T04:29:50.156Z,-0.99
2017-04-20T04:31:01.387Z,-1.06
2017-04-20T04:32:12.408Z,-1.01
2017-04-20T04:33:23.699Z,-1.1
2017-04-20T04:34:34.712Z,-0.99
2017-04-20T04:35:45.734Z,-0.95
2017-04-20T04:36:56.762Z,-0.93
2017-04-20T04:38:07.794Z,-1.06
2017-04-20T04:39:19.018Z,-1.01
2017-04-20T04:40:30.035Z,-1.01
2017-04-20T04:41:41.050Z,-0.95
2017-04-20T04:42:52.268Z,-0.91
2017-04-20T04:44:03.545Z,-0.92
2017-04-20T04:45:14.577Z,-0.91
2017-04-20T04:46:25.608Z,-0.85
2017-04-20T04:47:36.835Z,-0.91
2017-04-20T04:48:48.084Z,-0.77
2017-04-20T04:49:59.095Z,-0.89
2017-04-20T04:51:10.212Z,-0.74
2017-04-20T04:52:21.616Z,-0.74
2017-04-20T04:53:32.656Z,-0.8
2017-04-20T04:54:43.733Z,-0.79
2017-04-20T04:55:54.768Z,-0.82
2017-04-20T04:57:05.795Z,-0.79
2017-04-20T04:58:16.810Z,-0.76
2017-04-20T04:59:28.238Z,-0.69
2017-04-20T05:00:39.269Z,-0.64
2017-04-20T05:01:50.491Z,-0.7
2017-04-20T05:03:01.504Z,-0.66
2017-04-20T05:04:12.528Z,-0.64
2017-04-20T05:05:23.754Z,-0.67
2017-04-20T05:06:34.776Z,-0.59
2017-04-20T05:07:45.799Z,-0.64
2017-04-20T05:08:56.823Z,-0.54
2017-04-20T05:10:07.844Z,-0.55
2017-04-20T05:11:19.107Z,-0.46
2017-04-20T05:12:30.338Z,-0.4
2017-04-20T05:13:41.556Z,-0.41
2017-04-20T05:14:52.554Z,-0.3
2017-04-20T05:16:03.808Z,-0.31
2017-04-20T05:17:14.960Z,-0.23
2017-04-20T05:18:25.974Z,-0.25
2017-04-20T05:19:36.986Z,-0.2
2017-04-20T05:20:48.249Z,-0.2
2017-04-20T05:21:59.471Z,-0.12
2017-04-20T05:23:10.497Z,-0.2
2017-04-20T05:24:21.525Z,-0.12
2017-04-20T05:25:32.758Z,-0.12
2017-04-20T05:26:43.782Z,0.05
2017-04-20T05:27:54.807Z,0.1
2017-04-20T05:29:05.821Z,0.09
2017-04-20T05:30:16.848Z,0.06
2017-04-20T05:31:27.920Z,0.1
2017-04-20T05:32:38.939Z,0.16
2017-04-20T05:33:49.963Z,0.26
2017-04-20T05:35:00.976Z,0.34
2017-04-20T05:36:12.012Z,0.39
2017-04-20T05:37:23.093Z,0.34
2017-04-20T05:38:34.108Z,0.39
2017-04-20T05:39:45.118Z,0.44
2017-04-20T05:40:56.207Z,0.56
2017-04-20T05:42:07.218Z,0.58
2017-04-20T05:43:18.234Z,0.63
2017-04-20T05:44:29.268Z,0.74
2017-04-20T05:45:40.294Z,0.81
2017-04-20T05:46:51.315Z,0.75
2017-04-20T05:48:02.345Z,0.94
2017-04-20T05:49:13.416Z,0.96
2017-04-20T05:50:24.639Z,1.07
2017-04-20T05:51:35.669Z,1.08
2017-04-20T05:52:46.692Z,1.1
2017-04-20T05:53:57.715Z,1.22
2017-04-20T05:55:08.740Z,1.3
2017-04-20T05:56:19.756Z,1.54
2017-04-20T05:57:30.975Z,1.74
2017-04-20T05:58:42.248Z,1.87
2017-04-20T05:59:53.268Z,2.08
2017-04-20T06:01:04.303Z,2.2
2017-04-20T06:02:15.331Z,2.29
2017-04-20T06:03:26.360Z,2.42
2017-04-20T06:04:37.382Z,2.47
2017-04-20T06:05:48.601Z,2.6
2017-04-20T06:06:59.632Z,2.63
2017-04-20T06:08:10.647Z,2.8
2017-04-20T06:09:21.924Z,2.9
2017-04-20T06:10:32.941Z,3.03
2017-04-20T06:11:43.965Z,3.13
2017-04-20T06:12:55.102Z,3.19
2017-04-20T06:14:06.123Z,3.13
2017-04-20T06:15:17.145Z,3.21
2017-04-20T06:16:28.367Z,3.35
2017-04-20T06:17:39.589Z,3.56
2017-04-20T06:18:50.824Z,3.71
2017-04-20T06:20:01.891Z,3.89
2017-04-20T06:21:13.115Z,4.08
2017-04-20T06:22:24.139Z,4.32
2017-04-20T06:23:35.169Z,4.48
2017-04-20T06:24:46.195Z,4.68
2017-04-20T06:25:57.226Z,4.94
2017-04-20T06:27:08.639Z,5.05
2017-04-20T06:28:19.658Z,5.21
2017-04-20T06:29:30.678Z,5.54
2017-04-20T06:30:41.754Z,5.91
2017-04-20T06:31:52.777Z,6.17
2017-04-20T06:33:03.794Z,6.6
2017-04-20T06:34:14.820Z,6.97
2017-04-20T06:35:25.844Z,7.37
2017-04-20T06:36:36.878Z,7.91
2017-04-20T06:37:47.900Z,8.22
2017-04-20T06:38:59.233Z,8.67
2017-04-20T06:40:10.322Z,9.19
2017-04-20T06:41:21.398Z,9.44
2017-04-20T06:42:32.438Z,9.66
2017-04-20T06:43:43.466Z,9.85
2017-04-20T06:44:54.504Z,9.84
2017-04-20T06:46:05.533Z,9.93
2017-04-20T06:47:16.580Z,9.96
2017-04-20T06:48:27.807Z,10.08
2017-04-20T06:49:38.842Z,10.21
2017-04-20T06:50:50.073Z,10.31
2017-04-20T06:52:01.157Z,10.28
2017-04-20T06:53:12.188Z,10.54
2017-04-20T06:54:23.203Z,10.65
2017-04-20T06:55:34.652Z,10.67
2017-04-20T06:56:45.682Z,10.98
2017-04-20T06:57:56.962Z,11.27
2017-04-20T06:59:07.996Z,11.43
2017-04-20T07:00:19.019Z,11.57
2017-04-20T07:01:30.052Z,11.61
2017-04-20T07:02:41.302Z,11.76
2017-04-20T07:03:52.334Z,11.85
2017-04-20T07:05:03.374Z,11.89
2017-04-20T07:06:14.412Z,12.16
2017-04-20T07:07:25.624Z,12.31
2017-04-20T07:08:36.658Z,12.58
2017-04-20T07:09:48.064Z,12.74
2017-04-20T07:10:59.273Z,12.91
2017-04-20T07:12:10.307Z,13.11
2017-04-20T07:13:21.353Z,13.37
2017-04-20T07:14:32.390Z,13.65
2017-04-20T07:15:43.425Z,13.83
2017-04-20T07:16:54.469Z,14.05
2017-04-20T07:18:05.513Z,14.24
2017-04-20T07:19:16.608Z,14.41
2017-04-20T07:20:27.649Z,14.48
2017-04-20T07:21:38.680Z,14.52
2017-04-20T07:22:49.938Z,14.44
2017-04-20T07:24:00.975Z,14.49
2017-04-20T07:25:12.015Z,14.56
2017-04-20T07:26:23.057Z,14.46
2017-04-20T07:27:34.308Z,14.41
2017-04-20T07:28:45.353Z,14.51
2017-04-20T07:29:56.648Z,14.67
2017-04-20T07:31:07.701Z,14.7
2017-04-20T07:32:18.739Z,14.82
2017-04-20T07:33:29.982Z,14.87
2017-04-20T07:34:41.028Z,15.12
2017-04-20T07:35:52.318Z,15.18
2017-04-20T07:37:03.354Z,15.3
2017-04-20T07:38:14.400Z,15.27
2017-04-20T07:39:25.437Z,15.52
2017-04-20T07:40:36.502Z,15.73
2017-04-20T07:41:47.538Z,15.86
2017-04-20T07:42:58.594Z,15.99
2017-04-20T07:44:09.626Z,16.04
2017-04-20T07:45:20.669Z,16.06
2017-04-20T07:46:31.920Z,16.14
2017-04-20T07:47:43.006Z,16.37
2017-04-20T07:48:54.049Z,16.55
2017-04-20T07:50:05.497Z,16.42
2017-04-20T07:51:16.545Z,16.62
2017-04-20T07:52:27.781Z,16.63
2017-04-20T07:53:38.843Z,16.88
2017-04-20T07:54:49.890Z,17.09
2017-04-20T07:56:00.932Z,17.38
2017-04-20T07:57:12.019Z,17.55
2017-04-20T07:58:23.054Z,17.38
2017-04-20T07:59:34.122Z,17.27
2017-04-20T08:00:45.196Z,17.05
2017-04-20T08:01:56.387Z,17.15
2017-04-20T08:03:07.490Z,17.22
2017-04-20T08:04:18.540Z,17.32
2017-04-20T08:05:29.792Z,17.35
2017-04-20T08:06:41.052Z,17.25
2017-04-20T08:07:52.360Z,16.8
2017-04-20T08:09:03.620Z,16.7
2017-04-20T08:10:14.665Z,16.74
2017-04-20T08:11:25.696Z,16.73
2017-04-20T08:12:36.937Z,16.92
2017-04-20T08:13:48.027Z,17.05
2017-04-20T08:14:59.085Z,17.1
2017-04-20T08:16:10.131Z,17.09
2017-04-20T08:17:21.178Z,17.17
2017-04-20T08:18:32.227Z,17.09
2017-04-20T08:19:43.469Z,17.09
2017-04-20T08:20:54.511Z,17.05
2017-04-20T08:22:05.563Z,17
2017-04-20T08:23:16.612Z,16.77
2017-04-20T08:24:27.648Z,16.7
2017-04-20T08:25:38.747Z,16.7
2017-04-20T08:26:49.924Z,16.84
2017-04-20T08:28:01.174Z,16.67
2017-04-20T08:29:12.294Z,16.29
2017-04-20T08:30:23.340Z,15.91
2017-04-20T08:31:34.379Z,15.62
2017-04-20T08:32:45.415Z,15.63
2017-04-20T08:33:56.459Z,15.81
2017-04-20T08:35:07.565Z,16.07
2017-04-20T08:36:18.603Z,16.21
2017-04-20T08:37:29.635Z,16.25
2017-04-20T08:38:40.690Z,16.44
2017-04-20T08:39:51.735Z,16.37
2017-04-20T08:41:02.983Z,16.65
2017-04-20T08:42:14.021Z,16.72
2017-04-20T08:43:25.052Z,16.95
2017-04-20T08:44:36.086Z,17.06
2017-04-20T08:45:47.385Z,17.12
2017-04-20T08:46:58.437Z,17.17
2017-04-20T08:48:09.672Z,17.42
2017-04-20T08:49:20.720Z,17.38
2017-04-20T08:50:31.760Z,17.42
2017-04-20T08:51:43.060Z,17.42
2017-04-20T08:52:54.108Z,16.97
2017-04-20T08:54:05.158Z,16.85
2017-04-20T08:55:16.631Z,17
2017-04-20T08:56:27.682Z,16.95
2017-04-20T08:57:38.742Z,17.05
2017-04-20T08:58:49.788Z,17.22
2017-04-20T09:00:00.840Z,17.47
2017-04-20T09:01:12.082Z,17.52
2017-04-20T09:02:23.133Z,17.76
2017-04-20T09:03:34.231Z,17.6
2017-04-20T09:04:45.499Z,17.54
2017-04-20T09:05:56.548Z,17.73
2017-04-20T09:07:07.601Z,17.94
2017-04-20T09:08:19.113Z,18.06
2017-04-20T09:09:30.153Z,18.16
2017-04-20T09:10:41.188Z,18.17
2017-04-20T09:11:52.237Z,18.19
2017-04-20T09:13:03.321Z,18.51
2017-04-20T09:14:14.364Z,18.78
2017-04-20T09:15:25.405Z,18.69
2017-04-20T09:16:36.447Z,18.79
2017-04-20T09:17:47.492Z,18.81
2017-04-20T09:18:58.734Z,18.71
2017-04-20T09:20:09.780Z,18.89
2017-04-20T09:21:21.037Z,19.09
2017-04-20T09:22:32.549Z,19
2017-04-20T09:23:43.897Z,19.19
2017-04-20T09:24:55.145Z,19.23
2017-04-20T09:26:06.189Z,19.31
2017-04-20T09:27:17.241Z,19.13
2017-04-20T09:28:28.485Z,18.36
2017-04-20T09:29:39.585Z,18.13
2017-04-20T09:30:50.626Z,18.19
2017-04-20T09:32:01.670Z,18.23
2017-04-20T09:33:12.722Z,18.29
2017-04-20T09:34:23.761Z,18.49
2017-04-20T09:35:34.811Z,18.72
2017-04-20T09:36:45.862Z,18.72
2017-04-20T09:37:56.912Z,18.45
2017-04-20T09:39:07.964Z,18.16
2017-04-20T09:40:19.014Z,18.19
2017-04-20T09:41:30.366Z,18.06
2017-04-20T09:42:41.409Z,18.23
2017-04-20T09:43:52.861Z,18.35
2017-04-20T09:45:03.903Z,18.23
2017-04-20T09:46:14.994Z,18.5
2017-04-20T09:47:26.241Z,18.61
2017-04-20T09:48:37.467Z,18.87
2017-04-20T09:49:48.506Z,19.12
2017-04-20T09:50:59.590Z,19.24
2017-04-20T09:52:10.660Z,19.38
2017-04-20T09:53:21.705Z,19.13
2017-04-20T09:54:32.759Z,18.69
2017-04-20T09:55:43.799Z,18.53
2017-04-20T09:56:54.860Z,18.16
2017-04-20T09:58:05.908Z,17.9
2017-04-20T09:59:16.958Z,17.86
2017-04-20T10:00:27.998Z,18.14
2017-04-20T10:01:39.281Z,18.47
2017-04-20T10:02:50.337Z,18.68
2017-04-20T10:04:01.578Z,19.02
2017-04-20T10:05:12.641Z,19.06
2017-04-20T10:06:23.676Z,18.9
2017-04-20T10:07:34.714Z,18.75
2017-04-20T10:08:45.769Z,18.78
2017-04-20T10:09:57.009Z,18.79
2017-04-20T10:11:08.259Z,18.44
2017-04-20T10:12:19.303Z,18.11
2017-04-20T10:13:30.354Z,17.87
2017-04-20T10:14:41.786Z,17.87
2017-04-20T10:15:53.031Z,17.96
2017-04-20T10:17:04.072Z,17.47
2017-04-20T10:18:15.242Z,17.42
2017-04-20T10:19:26.361Z,17.27
2017-04-20T10:20:37.604Z,17.3
2017-04-20T10:21:48.653Z,17.39
2017-04-20T10:22:59.949Z,17.15
2017-04-20T10:24:10.986Z,17.1
2017-04-20T10:25:22.228Z,17.47
2017-04-20T10:26:33.255Z,17.65
2017-04-20T10:27:44.307Z,17.84
2017-04-20T10:28:55.354Z,17.88
2017-04-20T10:30:06.406Z,17.73
2017-04-20T10:31:17.437Z,17.99
2017-04-20T10:32:28.682Z,18.14
2017-04-20T10:33:39.977Z,18.29
2017-04-20T10:34:51.211Z,18.68
2017-04-20T10:36:02.249Z,18.81
2017-04-20T10:37:13.278Z,18.76
2017-04-20T10:38:24.558Z,18.97
2017-04-20T10:39:35.598Z,19.17
2017-04-20T10:40:47.035Z,19.15
2017-04-20T10:41:58.089Z,19.15
2017-04-20T10:43:09.146Z,19.13
2017-04-20T10:44:20.250Z,18.96
2017-04-20T10:45:31.300Z,18.74
2017-04-20T10:46:42.349Z,18.6
2017-04-20T10:47:53.384Z,18.42
2017-04-20T10:49:04.609Z,18.47
2017-04-20T10:50:15.665Z,18.74
2017-04-20T10:51:26.709Z,18.79
2017-04-20T10:52:37.754Z,18.76
2017-04-20T10:53:48.999Z,18.81
2017-04-20T10:55:00.040Z,18.84
2017-04-20T10:56:11.082Z,18.54
2017-04-20T10:57:22.136Z,18.53
2017-04-20T10:58:33.173Z,18.66
2017-04-20T10:59:44.226Z,18.54
2017-04-20T11:00:55.311Z,18.71
2017-04-20T11:02:06.342Z,18.41
2017-04-20T11:03:17.392Z,18.14
2017-04-20T11:04:28.427Z,18.11
2017-04-20T11:05:39.662Z,18.14
2017-04-20T11:06:50.905Z,18.23
2017-04-20T11:08:01.944Z,18.44
2017-04-20T11:09:12.990Z,18.5
2017-04-20T11:10:24.025Z,18.36
2017-04-20T11:11:35.298Z,18.53
2017-04-20T11:12:46.446Z,18.47
2017-04-20T11:13:57.478Z,18.27
2017-04-20T11:15:08.519Z,18.17
2017-04-20T11:16:19.762Z,18.1
2017-04-20T11:17:30.797Z,18.01
2017-04-20T11:18:41.834Z,18.08
2017-04-20T11:19:52.865Z,18.1
2017-04-20T11:21:03.914Z,17.62
2017-04-20T11:22:15.005Z,17.35
2017-04-20T11:23:26.048Z,16.97
2017-04-20T11:24:37.099Z,16.4
2017-04-20T11:25:48.137Z,16.33
2017-04-20T11:26:59.175Z,16.47
2017-04-20T11:28:10.209Z,16.73
2017-04-20T11:29:21.458Z,16.94
2017-04-20T11:30:32.496Z,17.12
2017-04-20T11:31:43.541Z,17.06
2017-04-20T11:32:54.574Z,17.24
2017-04-20T11:34:05.620Z,17.46
2017-04-20T11:35:16.654Z,17.63
2017-04-20T11:36:27.687Z,17.57
2017-04-20T11:37:38.730Z,17.39
2017-04-20T11:38:49.826Z,17.4
2017-04-20T11:40:00.889Z,17.42
2017-04-20T11:41:11.923Z,17.47
2017-04-20T11:42:22.966Z,17.68
2017-04-20T11:43:34.009Z,17.84
2017-04-20T11:44:45.056Z,18.06
2017-04-20T11:45:56.099Z,18.19
2017-04-20T11:47:07.134Z,18.23
2017-04-20T11:48:18.171Z,18.11
2017-04-20T11:49:29.246Z,18.14
2017-04-20T11:50:40.695Z,18.24
2017-04-20T11:51:51.725Z,18.11
2017-04-20T11:53:02.766Z,18.17
2017-04-20T11:54:14.014Z,18.06
2017-04-20T11:55:25.042Z,17.81
2017-04-20T11:56:36.077Z,17.73
2017-04-20T11:57:47.131Z,17.39
2017-04-20T11:58:58.165Z,17.39
2017-04-20T12:00:09.210Z,17.55
2017-04-20T12:01:20.247Z,17.8
2017-04-20T12:02:31.292Z,18.1
2017-04-20T12:03:42.341Z,18.23
2017-04-20T12:04:53.376Z,18.49
2017-04-20T12:06:04.534Z,18.29
2017-04-20T12:07:15.715Z,18.23
2017-04-20T12:08:26.823Z,18.42
2017-04-20T12:09:38.051Z,18.6
2017-04-20T12:10:49.095Z,18.69
2017-04-20T12:12:00.127Z,18.75
2017-04-20T12:13:11.171Z,18.86
2017-04-20T12:14:22.206Z,18.65
2017-04-20T12:15:33.246Z,18.35
2017-04-20T12:16:44.338Z,18.44
2017-04-20T12:17:55.377Z,18.47
2017-04-20T12:19:06.412Z,18.51
2017-04-20T12:20:17.438Z,18.54
2017-04-20T12:21:28.473Z,18.51
2017-04-20T12:22:39.508Z,18.16
2017-04-20T12:23:50.574Z,17.98
2017-04-20T12:25:01.602Z,17.99
2017-04-20T12:26:12.631Z,17.96
2017-04-20T12:27:23.910Z,17.94
2017-04-20T12:28:35.158Z,17.9
2017-04-20T12:29:46.402Z,17.87
2017-04-20T12:30:57.448Z,18.06
2017-04-20T12:32:08.592Z,18.14
2017-04-20T12:33:19.633Z,17.77
2017-04-20T12:34:31.129Z,17.36
2017-04-20T12:35:42.348Z,17.09
2017-04-20T12:36:53.381Z,17.06
2017-04-20T12:38:04.873Z,16.94
2017-04-20T12:39:15.925Z,16.99
2017-04-20T12:40:26.964Z,17.1
2017-04-20T12:41:38.005Z,17.1
2017-04-20T12:42:49.043Z,17.24
2017-04-20T12:44:00.340Z,17.36
2017-04-20T12:45:11.382Z,17.47
2017-04-20T12:46:22.421Z,17.8
2017-04-20T12:47:33.453Z,17.65
2017-04-20T12:48:44.682Z,17.71
2017-04-20T12:49:55.719Z,17.55
2017-04-20T12:51:06.961Z,17.55
2017-04-20T12:52:18.002Z,17.52
2017-04-20T12:53:29.040Z,17.46
2017-04-20T12:54:40.118Z,17.55
2017-04-20T12:55:51.357Z,17.38
2017-04-20T12:57:02.593Z,17.21
2017-04-20T12:58:13.619Z,17.18
2017-04-20T12:59:24.853Z,17.42
2017-04-20T13:00:35.896Z,17.63
2017-04-20T13:01:47.340Z,17.57
2017-04-20T13:02:58.369Z,17.49
2017-04-20T13:04:09.695Z,17.58
2017-04-20T13:05:20.941Z,17.54
2017-04-20T13:06:31.977Z,17.47
2017-04-20T13:07:43.019Z,17.27
2017-04-20T13:08:54.059Z,17.09
2017-04-20T13:10:05.109Z,17.07
2017-04-20T13:11:16.209Z,17.1
2017-04-20T13:12:27.447Z,17.22
2017-04-20T13:13:38.700Z,17.05
2017-04-20T13:14:49.730Z,16.94
2017-04-20T13:16:00.812Z,16.88
2017-04-20T13:17:11.855Z,16.8
2017-04-20T13:18:22.903Z,16.48
2017-04-20T13:19:33.944Z,16.32
2017-04-20T13:20:45.371Z,15.91
2017-04-20T13:21:56.418Z,16.13
2017-04-20T13:23:07.451Z,16.04
2017-04-20T13:24:18.686Z,16.07
2017-04-20T13:25:29.721Z,16.16
2017-04-20T13:26:40.756Z,16.18
2017-04-20T13:27:52.187Z,15.99
2017-04-20T13:29:03.261Z,15.88
2017-04-20T13:30:14.293Z,15.84
2017-04-20T13:31:25.436Z,15.92
2017-04-20T13:32:36.660Z,16.04
2017-04-20T13:33:47.695Z,16.26
2017-04-20T13:34:58.936Z,16.3
2017-04-20T13:36:09.966Z,16.21
2017-04-20T13:37:20.978Z,16.33
2017-04-20T13:38:32.022Z,16.34
2017-04-20T13:39:43.058Z,16.36
2017-04-20T13:40:54.091Z,16.39
2017-04-20T13:42:05.127Z,16.25
2017-04-20T13:43:16.210Z,16.37
2017-04-20T13:44:27.264Z,16.26
2017-04-20T13:45:38.705Z,16.3
2017-04-20T13:46:49.942Z,16.44
2017-04-20T13:48:00.981Z,16.4
2017-04-20T13:49:12.215Z,16.44
2017-04-20T13:50:23.448Z,16.47
2017-04-20T13:51:34.478Z,16.36
2017-04-20T13:52:45.492Z,16.37
2017-04-20T13:53:56.573Z,16.32
2017-04-20T13:55:07.611Z,16.34
2017-04-20T13:56:18.843Z,16.33
2017-04-20T13:57:29.997Z,16.33
2017-04-20T13:58:41.322Z,16.34
2017-04-20T13:59:52.494Z,16.42
2017-04-20T14:01:03.745Z,16.34
2017-04-20T14:02:14.985Z,16.22
2017-04-20T14:03:26.223Z,16.36
2017-04-20T14:04:37.662Z,16.34
2017-04-20T14:05:48.679Z,16.32
2017-04-20T14:06:59.712Z,16.44
2017-04-20T14:08:10.746Z,16.55
2017-04-20T14:09:21.977Z,16.51
2017-04-20T14:10:33.009Z,16.55
2017-04-20T14:11:44.090Z,16.34
2017-04-20T14:12:55.134Z,16.06
2017-04-20T14:14:06.170Z,15.86
2017-04-20T14:15:17.208Z,15.83
2017-04-20T14:16:28.248Z,15.86
2017-04-20T14:17:39.277Z,15.67
2017-04-20T14:18:50.312Z,15.59
2017-04-20T14:20:01.737Z,15.67
2017-04-20T14:21:13.227Z,15.8
2017-04-20T14:22:24.259Z,15.84
2017-04-20T14:23:35.310Z,15.77
2017-04-20T14:24:46.538Z,15.88
2017-04-20T14:25:57.568Z,15.91
2017-04-20T14:27:08.799Z,15.88
2017-04-20T14:28:19.978Z,15.96
2017-04-20T14:29:31.158Z,15.83
2017-04-20T14:30:42.217Z,15.71
2017-04-20T14:31:53.702Z,15.51
2017-04-20T14:33:04.745Z,15.3
2017-04-20T14:34:15.783Z,15.23
2017-04-20T14:35:26.810Z,15.2
2017-04-20T14:36:37.838Z,15.22
2017-04-20T14:37:49.066Z,15.47
2017-04-20T14:39:00.319Z,15.52
2017-04-20T14:40:11.350Z,15.58
2017-04-20T14:41:22.388Z,15.55
2017-04-20T14:42:33.418Z,15.67
2017-04-20T14:43:44.450Z,15.86
2017-04-20T14:44:55.481Z,15.75
2017-04-20T14:46:06.513Z,15.81
2017-04-20T14:47:17.544Z,15.8
2017-04-20T14:48:28.825Z,15.81
2017-04-20T14:49:39.859Z,15.89
2017-04-20T14:50:50.872Z,15.86
2017-04-20T14:52:01.903Z,15.7
2017-04-20T14:53:12.927Z,15.63
2017-04-20T14:54:23.955Z,15.56
2017-04-20T14:55:34.987Z,15.52
2017-04-20T14:56:46.182Z,15.51
2017-04-20T14:57:57.356Z,15.6
2017-04-20T14:59:08.495Z,15.44
2017-04-20T15:00:19.515Z,15.56
2017-04-20T15:01:30.752Z,15.56
2017-04-20T15:02:41.788Z,15.45
2017-04-20T15:03:53.018Z,15.58
2017-04-20T15:05:04.040Z,15.68
2017-04-20T15:06:15.071Z,15.78
2017-04-20T15:07:26.310Z,15.88
2017-04-20T15:08:37.341Z,15.71
2017-04-20T15:09:48.421Z,15.65
2017-04-20T15:10:59.461Z,15.55
2017-04-20T15:12:10.506Z,15.44
2017-04-20T15:13:21.544Z,15.31
2017-04-20T15:14:32.582Z,15.41
2017-04-20T15:15:43.623Z,15.55
2017-04-20T15:16:54.857Z,15.49
2017-04-20T15:18:06.095Z,15.58
2017-04-20T15:19:17.111Z,15.58
2017-04-20T15:20:28.146Z,15.65
2017-04-20T15:21:39.173Z,15.59
2017-04-20T15:22:50.406Z,15.65
2017-04-20T15:24:01.498Z,15.51
2017-04-20T15:25:12.529Z,15.43
2017-04-20T15:26:23.606Z,15.34
2017-04-20T15:27:34.640Z,15.27